Time;durP1;ratioP1;P1;durP2;ratioP2;P2;SDS_P1;SDS_P2;PMS_P1;PMS_P2;Temp;Humidity;BMP_temperature;BMP_pressure;BME280_temperature;BME280_humidity;BME280_pressure;Samples;Min_cycle;Max_cycle;Signal;HPM_P1;HPM_P2
2021/10/05 00:00:05;;;;;;;13.10;11.80;;;;;;;;;;4974435;28;20418;-72
2021/10/05 00:02:31;;;;;;;14.67;13.17;;;;;;;;;;4974114;28;20429;-72
2021/10/05 00:04:57;;;;;;;16.37;14.10;;;;;;;;;;4974030;28;20481;-72
2021/10/05 00:10:26;;;;;;;15.07;12.27;;;;;;;;;;4974161;28;20453;-73
2021/10/05 00:12:52;;;;;;;15.27;13.67;;;;;;;;;;4974042;28;20509;-71
2021/10/05 00:15:19;;;;;;;18.13;14.27;;;;;;;;;;4974124;28;20860;-71
2021/10/05 00:17:45;;;;;;;18.27;13.93;;;;;;;;;;4974141;28;20788;-71
2021/10/05 00:20:11;;;;;;;15.37;13.73;;;;;;;;;;4974289;28;20402;-71
2021/10/05 00:25:41;;;;;;;16.73;13.70;;;;;;;;;;4977986;28;20437;-71
2021/10/05 00:28:07;;;;;;;12.87;11.57;;;;;;;;;;4977580;28;20431;-70
2021/10/05 00:30:33;;;;;;;14.27;12.77;;;;;;;;;;4977905;28;20457;-70
2021/10/05 00:32:59;;;;;;;14.63;13.03;;;;;;;;;;4977794;28;20434;-70
2021/10/05 00:35:25;;;;;;;14.10;11.80;;;;;;;;;;4977864;28;20784;-70
2021/10/05 00:40:55;;;;;;;14.00;12.30;;;;;;;;;;4977518;28;20504;-71
2021/10/05 00:43:21;;;;;;;14.63;12.37;;;;;;;;;;4977409;28;21088;-71
2021/10/05 00:45:47;;;;;;;14.33;12.03;;;;;;;;;;4977677;28;20510;-71
2021/10/05 00:48:13;;;;;;;14.13;12.73;;;;;;;;;;4977574;28;20399;-71
2021/10/05 00:50:38;;;;;;;13.93;12.53;;;;;;;;;;4975756;28;20881;-71
2021/10/05 00:56:08;;;;;;;14.67;12.00;;;;;;;;;;4975932;28;20481;-71
2021/10/05 00:58:34;;;;;;;14.20;12.50;;;;;;;;;;4976260;28;20427;-71
2021/10/05 01:01:00;;;;;;;14.10;11.90;;;;;;;;;;4975952;28;20425;-71
2021/10/05 01:03:27;;;;;;;13.60;12.20;;;;;;;;;;4975902;28;20454;-71
2021/10/05 01:05:53;;;;;;;12.00;10.80;;;;;;;;;;4975825;28;20465;-70
2021/10/05 01:11:23;;;;;;;12.03;10.90;;;;;;;;;;4975508;28;20422;-71
2021/10/05 01:13:49;;;;;;;12.77;11.23;;;;;;;;;;4976209;28;20453;-70
2021/10/05 01:16:19;;;;;;;12.13;10.80;;;;;;;;;;4975814;28;20410;-71
2021/10/05 01:18:49;;;;;;;12.27;11.07;;;;;;;;;;4975822;28;20418;-71
2021/10/05 01:21:15;;;;;;;13.10;11.70;;;;;;;;;;4975767;28;20888;-71
2021/10/05 01:26:44;;;;;;;14.07;12.60;;;;;;;;;;4975385;28;20469;-71
2021/10/05 01:29:11;;;;;;;16.63;12.87;;;;;;;;;;4975637;28;20465;-71
2021/10/05 01:31:42;;;;;;;14.90;13.07;;;;;;;;;;4975300;28;20938;-71
2021/10/05 01:34:08;;;;;;;15.53;13.50;;;;;;;;;;4975617;28;20461;-71
2021/10/05 01:36:34;;;;;;;14.10;11.93;;;;;;;;;;4975498;28;20419;-71
2021/10/05 01:42:08;;;;;;;14.00;12.60;;;;;;;;;;4975297;28;20465;-71
2021/10/05 01:44:35;;;;;;;13.20;11.87;;;;;;;;;;4975454;28;20561;-71
2021/10/05 01:47:01;;;;;;;16.13;13.33;;;;;;;;;;4975700;28;20769;-71
2021/10/05 01:49:27;;;;;;;14.23;12.83;;;;;;;;;;4974201;28;20878;-72
2021/10/05 01:51:53;;;;;;;15.80;12.50;;;;;;;;;;4975300;28;20431;-71
2021/10/05 01:57:41;;;;;;;15.93;13.60;;;;;;;;;;4976001;28;20746;-71
2021/10/05 02:00:08;;;;;;;12.97;11.63;;;;;;;;;;4976327;28;20403;-71
2021/10/05 02:02:34;;;;;;;15.33;13.23;;;;;;;;;;4976329;28;20441;-71
2021/10/05 02:05:00;;;;;;;13.40;12.00;;;;;;;;;;4976217;28;20469;-72
2021/10/05 02:07:26;;;;;;;14.07;11.90;;;;;;;;;;4976296;28;20411;-71
2021/10/05 02:09:52;;;;;;;13.27;11.87;;;;;;;;;;4976373;28;20814;-71
2021/10/05 02:12:18;;;;;;;14.40;11.43;;;;;;;;;;4975765;28;20411;-71
2021/10/05 02:14:45;;;;;;;13.40;10.87;;;;;;;;;;4975917;28;20418;-69
2021/10/05 02:17:12;;;;;;;13.43;11.63;;;;;;;;;;4976214;28;20474;-71
2021/10/05 02:19:38;;;;;;;15.90;12.20;;;;;;;;;;4976203;28;20450;-70
2021/10/05 02:22:05;;;;;;;12.80;11.03;;;;;;;;;;4975731;28;20909;-70
2021/10/05 02:27:34;;;;;;;14.10;11.23;;;;;;;;;;4975419;28;20417;-71
2021/10/05 02:30:00;;;;;;;20.40;12.20;;;;;;;;;;4975707;28;20426;-71
2021/10/05 02:32:26;;;;;;;17.00;12.00;;;;;;;;;;4975671;28;20419;-71
2021/10/05 02:34:53;;;;;;;13.27;10.60;;;;;;;;;;4975856;28;20504;-71
2021/10/05 02:37:19;;;;;;;14.20;12.03;;;;;;;;;;4975846;28;20426;-71
2021/10/05 02:39:45;;;;;;;11.97;10.33;;;;;;;;;;4975613;28;20890;-71
2021/10/05 02:42:11;;;;;;;14.53;11.57;;;;;;;;;;4975412;28;20455;-71
2021/10/05 02:44:40;;;;;;;14.33;11.90;;;;;;;;;;4974610;28;20498;-70
2021/10/05 02:47:07;;;;;;;13.53;11.10;;;;;;;;;;4975480;28;20422;-70
2021/10/05 02:49:32;;;;;;;13.57;12.10;;;;;;;;;;4975352;28;20454;-70
2021/10/05 02:51:58;;;;;;;14.87;11.93;;;;;;;;;;4974876;28;20800;-70
2021/10/05 02:57:28;;;;;;;12.30;10.67;;;;;;;;;;4974893;28;20979;-71
2021/10/05 02:59:54;;;;;;;10.47;9.30;;;;;;;;;;4975504;28;20418;-70
2021/10/05 03:02:20;;;;;;;14.77;11.13;;;;;;;;;;4975366;28;20892;-70
2021/10/05 03:04:46;;;;;;;12.07;10.87;;;;;;;;;;4975075;28;20517;-70
2021/10/05 03:07:13;;;;;;;14.80;11.43;;;;;;;;;;4975090;28;20427;-71
2021/10/05 03:12:43;;;;;;;16.70;11.83;;;;;;;;;;4974609;28;20524;-71
2021/10/05 03:15:09;;;;;;;14.50;11.00;;;;;;;;;;4974852;28;20451;-71
2021/10/05 03:17:35;;;;;;;13.40;11.93;;;;;;;;;;4974833;28;20494;-71
2021/10/05 03:20:01;;;;;;;13.77;11.40;;;;;;;;;;4974789;28;20831;-71
2021/10/05 03:22:27;;;;;;;13.07;11.13;;;;;;;;;;4974816;28;20493;-71
2021/10/05 03:27:56;;;;;;;12.67;10.37;;;;;;;;;;4974265;28;20453;-71
2021/10/05 03:30:22;;;;;;;12.30;10.07;;;;;;;;;;4974902;28;20766;-71
2021/10/05 03:32:48;;;;;;;11.67;9.60;;;;;;;;;;4974548;28;20513;-71
2021/10/05 03:35:14;;;;;;;13.33;9.67;;;;;;;;;;4974551;28;20782;-71
2021/10/05 03:37:40;;;;;;;11.87;9.20;;;;;;;;;;4974734;28;20445;-72
2021/10/05 03:43:10;;;;;;;10.97;8.57;;;;;;;;;;4973985;28;20456;-71
2021/10/05 03:45:36;;;;;;;11.97;8.10;;;;;;;;;;4974697;28;20423;-71
2021/10/05 03:48:02;;;;;;;12.00;9.40;;;;;;;;;;4974384;28;20454;-71
2021/10/05 03:50:28;;;;;;;11.40;8.17;;;;;;;;;;4973087;28;20533;-71
2021/10/05 03:52:53;;;;;;;8.67;7.53;;;;;;;;;;4974166;28;20434;-69
2021/10/05 03:55:20;;;;;;;9.57;7.60;;;;;;;;;;4974167;28;20485;-70
2021/10/05 03:57:46;;;;;;;7.63;6.83;;;;;;;;;;4974069;28;20925;-71
2021/10/05 04:00:12;;;;;;;7.60;6.70;;;;;;;;;;4974291;28;20450;-71
2021/10/05 04:02:38;;;;;;;9.30;7.53;;;;;;;;;;4974047;28;20845;-70
2021/10/05 04:05:04;;;;;;;7.77;7.03;;;;;;;;;;4974058;28;20569;-70
2021/10/05 04:07:30;;;;;;;7.13;5.77;;;;;;;;;;4973967;28;20505;-70
2021/10/05 04:12:59;;;;;;;7.77;6.10;;;;;;;;;;4973762;28;20481;-71
2021/10/05 04:15:25;;;;;;;8.43;6.97;;;;;;;;;;4974074;28;20415;-71
2021/10/05 04:17:51;;;;;;;7.27;6.43;;;;;;;;;;4974089;28;20426;-71
2021/10/05 04:20:17;;;;;;;9.20;7.20;;;;;;;;;;4974016;28;20437;-71
2021/10/05 04:22:43;;;;;;;10.00;7.90;;;;;;;;;;4973853;28;20857;-72
2021/10/05 04:28:12;;;;;;;11.27;8.90;;;;;;;;;;4973574;28;20867;-70
2021/10/05 04:30:38;;;;;;;11.30;8.67;;;;;;;;;;4973651;28;20454;-70
2021/10/05 04:33:04;;;;;;;11.93;8.77;;;;;;;;;;4973700;28;20481;-71
2021/10/05 04:35:30;;;;;;;10.10;8.27;;;;;;;;;;4973631;28;20418;-70
2021/10/05 04:37:56;;;;;;;10.53;8.07;;;;;;;;;;4973569;28;20520;-71
2021/10/05 04:43:26;;;;;;;11.50;9.33;;;;;;;;;;4973520;28;20481;-71
2021/10/05 04:45:52;;;;;;;11.27;8.27;;;;;;;;;;4973970;28;20909;-71
2021/10/05 04:48:18;;;;;;;11.83;8.17;;;;;;;;;;4973803;28;20492;-71
2021/10/05 04:50:44;;;;;;;12.20;8.50;;;;;;;;;;4973618;28;20437;-71
2021/10/05 04:53:10;;;;;;;10.00;8.53;;;;;;;;;;4973319;28;20905;-71
2021/10/05 04:58:39;;;;;;;8.83;7.70;;;;;;;;;;4973403;28;20425;-71
2021/10/05 05:01:05;;;;;;;10.23;8.20;;;;;;;;;;4973586;28;20459;-71
2021/10/05 05:03:31;;;;;;;11.30;8.80;;;;;;;;;;4973526;28;20509;-70
2021/10/05 05:05:57;;;;;;;12.50;8.80;;;;;;;;;;4972798;28;20430;-71
2021/10/05 05:08:23;;;;;;;11.33;9.33;;;;;;;;;;4976084;28;20423;-70
2021/10/05 05:13:52;;;;;;;13.27;8.83;;;;;;;;;;4976720;28;20778;-70
2021/10/05 05:16:18;;;;;;;9.30;7.77;;;;;;;;;;4976964;28;20418;-70
2021/10/05 05:18:44;;;;;;;11.83;9.10;;;;;;;;;;4976623;28;20469;-70
2021/10/05 05:21:10;;;;;;;8.87;7.13;;;;;;;;;;4976613;28;20886;-70
2021/10/05 05:23:36;;;;;;;11.20;8.57;;;;;;;;;;4976575;28;20462;-70
2021/10/05 05:26:02;;;;;;;9.73;8.73;;;;;;;;;;4976569;28;20454;-70
2021/10/05 05:28:28;;;;;;;8.93;8.00;;;;;;;;;;4975686;28;20419;-70
2021/10/05 05:30:54;;;;;;;10.23;8.30;;;;;;;;;;4976381;28;20489;-71
2021/10/05 05:33:20;;;;;;;11.60;9.07;;;;;;;;;;4976436;28;20423;-71
2021/10/05 05:35:48;;;;;;;10.90;9.30;;;;;;;;;;4976354;28;20427;-71
2021/10/05 05:38:14;;;;;;;11.37;9.20;;;;;;;;;;4976152;28;20423;-71
2021/10/05 05:43:43;;;;;;;8.63;7.27;;;;;;;;;;4976095;28;20614;-71
2021/10/05 05:46:09;;;;;;;11.67;9.00;;;;;;;;;;4976101;28;20889;-70
2021/10/05 05:48:35;;;;;;;10.63;7.87;;;;;;;;;;4976062;28;20488;-70
2021/10/05 05:51:01;;;;;;;8.70;7.80;;;;;;;;;;4976044;28;20893;-70
2021/10/05 05:53:27;;;;;;;9.87;7.47;;;;;;;;;;4975624;28;20430;-70
2021/10/05 05:58:59;;;;;;;9.90;7.77;;;;;;;;;;4975799;28;20433;-69
2021/10/05 06:01:25;;;;;;;9.70;7.70;;;;;;;;;;4975870;28;20973;-70
2021/10/05 06:03:51;;;;;;;8.47;7.27;;;;;;;;;;4975710;28;20611;-70
2021/10/05 06:06:17;;;;;;;9.43;7.40;;;;;;;;;;4975645;28;20418;-69
2021/10/05 06:08:43;;;;;;;9.00;6.87;;;;;;;;;;4975721;28;20414;-70
2021/10/05 06:14:13;;;;;;;9.93;6.80;;;;;;;;;;4975536;28;20426;-70
2021/10/05 06:16:38;;;;;;;10.60;7.70;;;;;;;;;;4975472;28;20415;-70
2021/10/05 06:19:04;;;;;;;9.97;8.07;;;;;;;;;;4974263;28;20879;-70
2021/10/05 06:21:30;;;;;;;9.53;7.67;;;;;;;;;;4975439;28;20426;-70
2021/10/05 06:23:56;;;;;;;10.40;7.47;;;;;;;;;;4975209;28;20466;-70
2021/10/05 06:26:22;;;;;;;9.37;6.77;;;;;;;;;;4975182;28;20433;-69
2021/10/05 06:28:49;;;;;;;10.43;7.70;;;;;;;;;;4975176;28;20411;-71
2021/10/05 06:31:15;;;;;;;10.60;7.67;;;;;;;;;;4974927;28;20427;-70
2021/10/05 06:33:41;;;;;;;10.13;7.63;;;;;;;;;;4975302;28;20446;-70
2021/10/05 06:36:07;;;;;;;10.33;8.50;;;;;;;;;;4975396;28;20964;-69
2021/10/05 06:38:33;;;;;;;8.00;7.20;;;;;;;;;;4975437;28;20831;-71
2021/10/05 06:44:03;;;;;;;10.17;7.40;;;;;;;;;;4975054;28;20477;-71
2021/10/05 06:46:29;;;;;;;9.67;7.80;;;;;;;;;;4974983;28;20426;-70
2021/10/05 06:48:55;;;;;;;9.87;6.43;;;;;;;;;;4974894;28;21014;-70
2021/10/05 06:51:21;;;;;;;10.40;8.07;;;;;;;;;;4974730;28;20422;-71
2021/10/05 06:53:47;;;;;;;9.60;8.53;;;;;;;;;;4974667;28;20447;-70
2021/10/05 06:59:16;;;;;;;14.40;9.07;;;;;;;;;;4972895;28;20500;-71
2021/10/05 07:01:42;;;;;;;12.47;7.53;;;;;;;;;;4972859;28;20497;-71
2021/10/05 07:04:10;;;;;;;8.90;6.90;;;;;;;;;;4973091;28;20478;-70
2021/10/05 07:06:37;;;;;;;9.03;7.77;;;;;;;;;;4973339;28;20433;-70
2021/10/05 07:09:03;;;;;;;9.43;7.53;;;;;;;;;;4973570;28;20426;-70
2021/10/05 07:14:33;;;;;;;7.60;6.57;;;;;;;;;;4972771;28;20409;-70
2021/10/05 07:17:01;;;;;;;11.70;8.40;;;;;;;;;;4973403;28;20415;-69
2021/10/05 07:19:27;;;;;;;10.00;7.90;;;;;;;;;;4973450;28;20409;-69
2021/10/05 07:21:53;;;;;;;8.60;7.03;;;;;;;;;;4973395;28;20509;-69
2021/10/05 07:24:19;;;;;;;7.73;6.93;;;;;;;;;;4973577;28;20574;-70
2021/10/05 07:29:48;;;;;;;7.93;5.97;;;;;;;;;;4972270;28;20422;-70
2021/10/05 07:32:14;;;;;;;8.90;7.27;;;;;;;;;;4973301;28;20430;-70
2021/10/05 07:34:40;;;;;;;7.77;6.23;;;;;;;;;;4971691;28;20423;-71
2021/10/05 07:37:06;;;;;;;7.40;5.80;;;;;;;;;;4972252;28;20415;-70
2021/10/05 07:39:32;;;;;;;8.13;6.20;;;;;;;;;;4972631;28;20418;-72
2021/10/05 07:45:02;;;;;;;8.07;6.60;;;;;;;;;;4972354;28;20565;-70
2021/10/05 07:47:28;;;;;;;9.87;6.77;;;;;;;;;;4972368;28;20426;-70
2021/10/05 07:49:54;;;;;;;7.93;6.03;;;;;;;;;;4972284;28;20427;-70
2021/10/05 07:52:20;;;;;;;9.07;6.03;;;;;;;;;;4972050;28;20488;-70
2021/10/05 07:54:46;;;;;;;7.60;5.90;;;;;;;;;;4972227;28;20486;-71
2021/10/05 07:57:13;;;;;;;6.00;5.27;;;;;;;;;;4971921;28;20418;-69
2021/10/05 07:59:39;;;;;;;5.83;4.30;;;;;;;;;;4972491;28;20410;-70
2021/10/05 08:02:06;;;;;;;6.67;5.00;;;;;;;;;;4970942;28;20445;-70
2021/10/05 08:04:32;;;;;;;6.17;4.60;;;;;;;;;;4971899;28;20470;-72
2021/10/05 08:06:58;;;;;;;5.23;4.73;;;;;;;;;;4972185;28;20415;-71
2021/10/05 08:09:24;;;;;;;4.40;3.90;;;;;;;;;;4972381;28;20905;-72
2021/10/05 08:14:55;;;;;;;5.63;4.67;;;;;;;;;;4972148;28;20604;-71
2021/10/05 08:17:21;;;;;;;5.20;4.63;;;;;;;;;;4971102;28;20439;-71
2021/10/05 08:19:47;;;;;;;4.73;4.33;;;;;;;;;;4972211;28;20418;-71
2021/10/05 08:22:13;;;;;;;4.57;4.13;;;;;;;;;;4972416;28;20513;-72
2021/10/05 08:24:39;;;;;;;5.07;4.57;;;;;;;;;;4971511;28;20477;-71
2021/10/05 08:30:09;;;;;;;4.87;4.40;;;;;;;;;;4972100;28;20469;-69
2021/10/05 08:32:35;;;;;;;4.57;4.07;;;;;;;;;;4972329;28;20450;-70
2021/10/05 08:35:01;;;;;;;4.57;4.13;;;;;;;;;;4972176;28;20436;-71
2021/10/05 08:37:27;;;;;;;4.80;3.90;;;;;;;;;;4972254;28;20423;-71
2021/10/05 08:39:53;;;;;;;3.97;3.67;;;;;;;;;;4972279;28;20415;-72
2021/10/05 08:45:23;;;;;;;4.17;3.77;;;;;;;;;;4976062;28;20441;-72
2021/10/05 08:47:49;;;;;;;3.80;3.40;;;;;;;;;;4976089;28;20415;-71
2021/10/05 08:50:16;;;;;;;3.77;3.43;;;;;;;;;;4975861;28;20450;-71
2021/10/05 08:52:45;;;;;;;3.90;3.50;;;;;;;;;;4975729;28;20414;-71
2021/10/05 09:01:11;;;;;;;3.60;3.30;;;;;;;;;;4975826;28;20429;-70
2021/10/05 09:03:40;;;;;;;3.40;2.97;;;;;;;;;;4976036;28;20465;-71
2021/10/05 09:06:12;;;;;;;2.53;2.33;;;;;;;;;;4975749;28;20513;-71
2021/10/05 09:08:39;;;;;;;2.80;2.60;;;;;;;;;;4975747;28;20429;-70
2021/10/05 09:11:05;;;;;;;3.57;2.93;;;;;;;;;;4975562;28;20753;-71
2021/10/05 09:13:35;;;;;;;3.90;3.50;;;;;;;;;;4975437;28;20415;-69
2021/10/05 09:16:02;;;;;;;4.27;3.80;;;;;;;;;;4975392;28;20465;-70
2021/10/05 09:18:28;;;;;;;8.30;3.13;;;;;;;;;;4975567;28;20816;-70
2021/10/05 09:20:54;;;;;;;4.33;3.53;;;;;;;;;;4974355;28;20521;-70
2021/10/05 09:23:20;;;;;;;4.10;3.33;;;;;;;;;;4975540;28;20496;-70
2021/10/05 09:25:47;;;;;;;3.40;3.10;;;;;;;;;;4975506;28;20836;-70
2021/10/05 09:28:16;;;;;;;4.73;4.33;;;;;;;;;;4974925;28;20411;-70
2021/10/05 09:30:42;;;;;;;4.13;3.60;;;;;;;;;;4973907;28;20925;-70
2021/10/05 09:33:08;;;;;;;4.47;3.90;;;;;;;;;;4975016;28;20425;-70
2021/10/05 09:35:42;;;;;;;4.20;3.77;;;;;;;;;;4975070;28;20422;-71
2021/10/05 09:38:15;;;;;;;5.17;4.27;;;;;;;;;;4975077;28;20429;-72
2021/10/05 09:40:41;;;;;;;4.40;3.50;;;;;;;;;;4975235;28;20418;-70
2021/10/05 09:43:21;;;;;;;4.33;3.93;;;;;;;;;;4974635;28;20493;-70
2021/10/05 09:45:48;;;;;;;4.40;3.50;;;;;;;;;;4975129;28;20541;-70
2021/10/05 09:48:14;;;;;;;4.97;3.27;;;;;;;;;;4974876;28;20418;-70
2021/10/05 09:50:40;;;;;;;4.90;4.37;;;;;;;;;;4974763;28;20438;-71
2021/10/05 09:53:08;;;;;;;4.43;4.03;;;;;;;;;;4974484;28;20450;-71
2021/10/05 09:55:36;;;;;;;4.73;4.33;;;;;;;;;;4974628;28;20485;-71
2021/10/05 09:58:03;;;;;;;3.93;3.53;;;;;;;;;;4974614;28;20910;-70
2021/10/05 10:00:30;;;;;;;3.33;2.70;;;;;;;;;;4974537;28;20414;-71
2021/10/05 10:02:56;;;;;;;3.13;2.83;;;;;;;;;;4974644;28;20839;-71
2021/10/05 10:05:23;;;;;;;4.07;3.20;;;;;;;;;;4974416;28;20501;-71
2021/10/05 10:07:51;;;;;;;5.10;3.57;;;;;;;;;;4974626;28;20509;-70
2021/10/05 10:10:19;;;;;;;3.87;3.17;;;;;;;;;;4974701;28;20431;-70
2021/10/05 10:15:49;;;;;;;5.73;3.57;;;;;;;;;;4970615;28;20489;-70
2021/10/05 10:18:16;;;;;;;3.97;3.23;;;;;;;;;;4973326;28;20422;-70
2021/10/05 10:20:44;;;;;;;4.27;3.50;;;;;;;;;;4972982;28;20923;-70
2021/10/05 10:23:23;;;;;;;2.63;2.43;;;;;;;;;;4972994;28;20795;-71
2021/10/05 10:25:54;;;;;;;2.40;2.17;;;;;;;;;;4968406;28;20429;-71
2021/10/05 10:28:24;;;;;;;2.73;2.50;;;;;;;;;;4972463;28;20427;-70
2021/10/05 10:30:51;;;;;;;1.80;1.70;;;;;;;;;;4972571;28;20453;-70
2021/10/05 10:33:17;;;;;;;2.87;2.43;;;;;;;;;;4972505;28;20453;-70
2021/10/05 10:35:54;;;;;;;1.97;1.87;;;;;;;;;;4972803;28;20815;-70
2021/10/05 10:38:24;;;;;;;1.43;1.33;;;;;;;;;;4972499;28;20419;-70
2021/10/05 10:40:50;;;;;;;1.40;1.30;;;;;;;;;;4972432;28;20426;-70
2021/10/05 10:43:18;;;;;;;1.77;1.67;;;;;;;;;;4972159;28;20461;-70
2021/10/05 10:45:51;;;;;;;2.00;1.80;;;;;;;;;;4973117;28;20434;-71
2021/10/05 10:48:28;;;;;;;1.33;1.23;;;;;;;;;;4973250;28;20426;-71
2021/10/05 10:50:55;;;;;;;1.37;1.27;;;;;;;;;;4973268;28;20517;-71
2021/10/05 10:53:31;;;;;;;1.73;1.60;;;;;;;;;;4973362;28;20425;-72
2021/10/05 10:55:57;;;;;;;1.30;1.13;;;;;;;;;;4972646;28;20482;-71
2021/10/05 10:58:31;;;;;;;1.50;1.40;;;;;;;;;;4973486;28;20415;-70
2021/10/05 11:00:57;;;;;;;1.40;1.30;;;;;;;;;;4970927;28;20433;-70
2021/10/05 11:03:27;;;;;;;1.73;1.63;;;;;;;;;;4973535;28;20524;-70
2021/10/05 11:05:53;;;;;;;1.50;1.40;;;;;;;;;;4972411;28;20426;-71
2021/10/05 11:08:19;;;;;;;1.67;1.57;;;;;;;;;;4972738;28;20411;-68
2021/10/05 11:10:46;;;;;;;1.17;1.03;;;;;;;;;;4972825;28;20905;-69
2021/10/05 11:16:15;;;;;;;2.00;1.80;;;;;;;;;;4972695;28;20478;-69
2021/10/05 11:18:41;;;;;;;2.00;1.67;;;;;;;;;;4972797;28;20418;-68
2021/10/05 11:21:12;;;;;;;1.40;1.30;;;;;;;;;;4973027;28;20781;-69
2021/10/05 11:23:44;;;;;;;1.53;1.43;;;;;;;;;;4972711;28;20545;-69
2021/10/05 11:26:10;;;;;;;1.70;1.60;;;;;;;;;;4972673;28;20809;-69
2021/10/05 11:28:43;;;;;;;2.50;2.27;;;;;;;;;;4972248;28;20450;-70
2021/10/05 11:31:11;;;;;;;1.60;1.50;;;;;;;;;;4972562;28;20407;-70
2021/10/05 11:33:38;;;;;;;3.47;2.27;;;;;;;;;;4972438;28;20418;-70
2021/10/05 11:36:13;;;;;;;1.87;1.77;;;;;;;;;;4973037;28;20415;-70
2021/10/05 11:38:40;;;;;;;1.50;1.40;;;;;;;;;;4972360;28;20501;-70
2021/10/05 11:41:06;;;;;;;1.30;1.20;;;;;;;;;;4972717;28;20418;-70
2021/10/05 11:46:36;;;;;;;1.10;1.00;;;;;;;;;;4972431;28;20422;-70
2021/10/05 11:49:02;;;;;;;0.90;0.90;;;;;;;;;;4972487;28;20422;-71
2021/10/05 11:51:28;;;;;;;1.20;1.10;;;;;;;;;;4972198;28;20413;-71
2021/10/05 11:53:58;;;;;;;1.00;1.00;;;;;;;;;;4972669;28;20965;-71
2021/10/05 11:56:24;;;;;;;1.20;1.10;;;;;;;;;;4971806;28;20478;-71
2021/10/05 11:58:55;;;;;;;1.77;1.40;;;;;;;;;;4971396;28;20433;-69
2021/10/05 12:01:27;;;;;;;1.00;0.80;;;;;;;;;;4971026;28;20542;-71
2021/10/05 12:04:06;;;;;;;0.90;0.90;;;;;;;;;;4972369;28;20485;-70
2021/10/05 12:06:33;;;;;;;1.20;1.10;;;;;;;;;;4972361;28;20419;-70
2021/10/05 12:09:00;;;;;;;1.10;1.00;;;;;;;;;;4972527;28;20426;-71
2021/10/05 12:11:39;;;;;;;1.00;0.90;;;;;;;;;;4972345;28;20984;-71
2021/10/05 12:14:06;;;;;;;0.97;0.70;;;;;;;;;;4972722;28;20415;-70
2021/10/05 12:16:32;;;;;;;0.70;0.70;;;;;;;;;;4974258;28;20422;-71
2021/10/05 12:18:59;;;;;;;1.03;0.83;;;;;;;;;;4976938;28;20517;-71
2021/10/05 12:21:25;;;;;;;0.87;0.83;;;;;;;;;;4976567;28;20461;-71
2021/10/05 12:23:52;;;;;;;1.00;0.90;;;;;;;;;;4976443;28;20520;-71
2021/10/05 12:26:18;;;;;;;0.93;0.60;;;;;;;;;;4976020;28;20452;-71
2021/10/05 12:31:55;;;;;;;0.47;0.47;;;;;;;;;;4976150;28;20412;-71
2021/10/05 12:34:21;;;;;;;0.53;0.53;;;;;;;;;;4976063;28;20465;-73
2021/10/05 12:36:49;;;;;;;0.83;0.83;;;;;;;;;;4976179;28;20410;-72
2021/10/05 12:39:15;;;;;;;0.70;0.70;;;;;;;;;;4976078;28;20430;-73
2021/10/05 12:41:42;;;;;;;0.63;0.60;;;;;;;;;;4975937;28;20479;-73
2021/10/05 12:44:18;;;;;;;0.70;0.70;;;;;;;;;;4974687;28;20470;-73
2021/10/05 12:46:58;;;;;;;1.00;0.90;;;;;;;;;;4976087;28;20934;-73
2021/10/05 12:49:25;;;;;;;0.80;0.80;;;;;;;;;;4976194;28;20414;-73
2021/10/05 12:51:51;;;;;;;1.10;1.00;;;;;;;;;;4976109;28;20465;-73
2021/10/05 12:54:18;;;;;;;0.73;0.60;;;;;;;;;;4976112;28;20545;-73
2021/10/05 12:56:45;;;;;;;1.63;0.63;;;;;;;;;;4975969;28;20847;-73
2021/10/05 13:02:15;;;;;;;0.87;0.80;;;;;;;;;;4975930;28;20468;-73
2021/10/05 13:04:40;;;;;;;0.97;0.70;;;;;;;;;;4975811;28;20478;-73
2021/10/05 13:07:06;;;;;;;1.27;0.60;;;;;;;;;;4975768;28;20414;-74
2021/10/05 13:09:32;;;;;;;1.73;0.90;;;;;;;;;;4975396;28;20429;-73
2021/10/05 13:11:58;;;;;;;1.10;1.00;;;;;;;;;;4975385;28;20414;-73
2021/10/05 13:14:25;;;;;;;0.97;0.70;;;;;;;;;;4975884;28;20755;-73
2021/10/05 13:16:51;;;;;;;4.63;0.60;;;;;;;;;;4975558;28;20419;-73
2021/10/05 13:19:17;;;;;;;2.13;0.80;;;;;;;;;;4975685;28;20437;-73
2021/10/05 13:21:43;;;;;;;0.70;0.70;;;;;;;;;;4975788;28;20525;-73
2021/10/05 13:24:10;;;;;;;0.70;0.60;;;;;;;;;;4975407;28;20521;-73
2021/10/05 13:26:38;;;;;;;0.70;0.60;;;;;;;;;;4974341;28;20420;-72
2021/10/05 13:32:08;;;;;;;1.00;0.80;;;;;;;;;;4973352;28;20426;-73
2021/10/05 13:34:34;;;;;;;0.90;0.60;;;;;;;;;;4971628;28;20532;-72
2021/10/05 13:37:00;;;;;;;0.70;0.60;;;;;;;;;;4971764;28;20442;-72
2021/10/05 13:39:26;;;;;;;0.90;0.83;;;;;;;;;;4973343;28;20414;-71
2021/10/05 13:41:52;;;;;;;0.80;0.60;;;;;;;;;;4972708;28;20434;-72
2021/10/05 13:47:22;;;;;;;1.03;0.53;;;;;;;;;;4972829;28;20445;-74
2021/10/05 13:49:48;;;;;;;1.27;0.60;;;;;;;;;;4973198;28;20925;-72
2021/10/05 13:52:15;;;;;;;0.87;0.80;;;;;;;;;;4972707;28;20422;-72
2021/10/05 13:54:42;;;;;;;0.60;0.57;;;;;;;;;;4972123;28;20470;-73
2021/10/05 13:57:08;;;;;;;1.83;0.50;;;;;;;;;;4972226;28;20422;-73
2021/10/05 14:02:38;;;;;;;0.70;0.60;;;;;;;;;;4973831;28;20496;-72
2021/10/05 14:05:04;;;;;;;0.90;0.70;;;;;;;;;;4974153;28;20809;-72
2021/10/05 14:07:30;;;;;;;0.73;0.57;;;;;;;;;;4973829;28;20752;-72
2021/10/05 14:09:56;;;;;;;0.90;0.73;;;;;;;;;;4973967;28;20427;-73
2021/10/05 14:12:22;;;;;;;0.87;0.70;;;;;;;;;;4973611;28;20415;-73
2021/10/05 14:17:52;;;;;;;0.70;0.70;;;;;;;;;;4973723;28;20497;-72
2021/10/05 14:20:18;;;;;;;0.50;0.40;;;;;;;;;;4973898;28;20414;-73
2021/10/05 14:22:44;;;;;;;0.50;0.40;;;;;;;;;;4973624;28;20423;-72
2021/10/05 14:25:10;;;;;;;0.57;0.50;;;;;;;;;;4973482;28;20565;-72
2021/10/05 14:27:36;;;;;;;0.70;0.60;;;;;;;;;;4973696;28;20439;-72
2021/10/05 14:30:03;;;;;;;0.67;0.60;;;;;;;;;;4973641;28;20433;-72
2021/10/05 14:32:29;;;;;;;0.93;0.50;;;;;;;;;;4973332;28;20421;-72
2021/10/05 14:34:55;;;;;;;0.40;0.30;;;;;;;;;;4973487;28;20422;-72
2021/10/05 14:37:21;;;;;;;3.70;1.67;;;;;;;;;;4973409;28;20418;-72
2021/10/05 14:39:47;;;;;;;0.87;0.50;;;;;;;;;;4972600;28;20430;-72
2021/10/05 14:42:13;;;;;;;0.90;0.70;;;;;;;;;;4972770;28;20414;-73
2021/10/05 14:47:43;;;;;;;1.07;0.57;;;;;;;;;;4973114;28;20433;-72
2021/10/05 14:50:10;;;;;;;0.60;0.40;;;;;;;;;;4973141;28;20502;-73
2021/10/05 14:52:36;;;;;;;0.60;0.50;;;;;;;;;;4972814;28;20422;-73
2021/10/05 14:55:02;;;;;;;1.10;0.70;;;;;;;;;;4970252;28;20536;-73
2021/10/05 14:57:29;;;;;;;1.07;0.97;;;;;;;;;;4971027;28;20425;-73
2021/10/05 15:02:58;;;;;;;1.50;1.40;;;;;;;;;;4971305;28;20426;-73
2021/10/05 15:05:24;;;;;;;2.97;1.13;;;;;;;;;;4971380;28;20482;-73
2021/10/05 15:07:50;;;;;;;4.70;4.30;;;;;;;;;;4970958;28;20418;-72
2021/10/05 15:10:17;;;;;;;4.20;3.87;;;;;;;;;;4971284;28;20518;-72
2021/10/05 15:12:43;;;;;;;0.50;0.47;;;;;;;;;;4971348;28;20419;-72
2021/10/05 15:18:13;;;;;;;1.30;0.70;;;;;;;;;;4970989;28;20429;-73
2021/10/05 15:20:40;;;;;;;0.67;0.67;;;;;;;;;;4971124;28;20835;-72
2021/10/05 15:23:06;;;;;;;0.70;0.53;;;;;;;;;;4970875;28;20794;-73
2021/10/05 15:25:32;;;;;;;1.00;0.90;;;;;;;;;;4970258;28;20505;-71
2021/10/05 15:27:58;;;;;;;0.73;0.57;;;;;;;;;;4970197;28;20418;-72
2021/10/05 15:30:24;;;;;;;0.73;0.63;;;;;;;;;;4970764;28;20485;-72
2021/10/05 15:32:50;;;;;;;0.70;0.53;;;;;;;;;;4971110;28;20774;-70
2021/10/05 15:35:16;;;;;;;1.63;1.20;;;;;;;;;;4971195;28;20823;-72
2021/10/05 15:37:43;;;;;;;0.83;0.70;;;;;;;;;;4970377;28;20449;-72
2021/10/05 15:40:11;;;;;;;1.00;0.90;;;;;;;;;;4970933;28;20514;-72
2021/10/05 15:42:37;;;;;;;0.90;0.80;;;;;;;;;;4970380;28;20469;-71
2021/10/05 15:48:06;;;;;;;1.30;1.20;;;;;;;;;;4969964;28;20465;-72
2021/10/05 15:50:39;;;;;;;1.63;0.70;;;;;;;;;;4970877;28;20458;-71
2021/10/05 15:53:06;;;;;;;0.90;0.77;;;;;;;;;;4970830;28;20423;-70
2021/10/05 15:55:33;;;;;;;0.80;0.67;;;;;;;;;;4969622;28;21039;-71
2021/10/05 15:57:59;;;;;;;0.77;0.77;;;;;;;;;;4970761;28;20469;-71
2021/10/05 16:03:28;;;;;;;0.87;0.87;;;;;;;;;;4970972;28;20779;-72
2021/10/05 16:05:55;;;;;;;0.70;0.70;;;;;;;;;;4971259;28;20788;-73
2021/10/05 16:08:21;;;;;;;1.37;1.27;;;;;;;;;;4971095;28;20496;-72
2021/10/05 16:10:48;;;;;;;0.73;0.70;;;;;;;;;;4970886;28;20953;-73
2021/10/05 16:13:14;;;;;;;1.37;0.90;;;;;;;;;;4971626;28;20430;-71
2021/10/05 16:15:40;;;;;;;0.80;0.80;;;;;;;;;;4972430;28;20562;-71
2021/10/05 16:18:06;;;;;;;0.80;0.80;;;;;;;;;;4972493;28;20925;-71
2021/10/05 16:20:32;;;;;;;1.07;0.70;;;;;;;;;;4972154;28;20430;-72
2021/10/05 16:22:59;;;;;;;1.20;0.80;;;;;;;;;;4972313;28;20814;-72
2021/10/05 16:25:26;;;;;;;0.93;0.77;;;;;;;;;;4972240;28;20961;-72
2021/10/05 16:27:52;;;;;;;1.53;1.10;;;;;;;;;;4972258;28;20425;-72
2021/10/05 16:33:22;;;;;;;1.33;0.80;;;;;;;;;;4971606;28;20472;-70
2021/10/05 16:35:48;;;;;;;1.70;1.37;;;;;;;;;;4972407;28;20906;-72
2021/10/05 16:38:14;;;;;;;1.90;1.33;;;;;;;;;;4971641;28;20411;-72
2021/10/05 16:40:40;;;;;;;1.40;1.30;;;;;;;;;;4972119;28;20402;-73
2021/10/05 16:43:06;;;;;;;2.20;1.00;;;;;;;;;;4972015;28;20418;-72
2021/10/05 16:48:36;;;;;;;1.37;1.00;;;;;;;;;;4972240;28;20457;-71
2021/10/05 16:51:02;;;;;;;1.30;0.90;;;;;;;;;;4972012;28;20438;-72
2021/10/05 16:53:28;;;;;;;2.70;0.80;;;;;;;;;;4972120;28;20505;-72
2021/10/05 16:55:54;;;;;;;1.20;1.10;;;;;;;;;;4971857;28;20946;-72